sensor_id;sensor_type;location;lat;lon;timestamp;pressure;altitude;pressure_sealevel;temperature;humidity
33486;BME280;19824;52.098;5.004;2023-03-04T06:02:42;102672.38;;;8.12;72.67
33486;BME280;19824;52.098;5.004;2023-03-04T06:05:27;102668.78;;;8.13;72.76
33486;BME280;19824;52.098;5.004;2023-03-04T06:08:04;102669.56;;;8.15;73.06
33486;BME280;19824;52.098;5.004;2023-03-04T06:10:34;102668.78;;;8.13;73.21
33486;BME280;19824;52.098;5.004;2023-03-04T06:13:11;102666.06;;;8.15;73.49
33486;BME280;19824;52.098;5.004;2023-03-04T06:15:41;102674.81;;;8.17;74.23
33486;BME280;19824;52.098;5.004;2023-03-04T06:18:20;102678.31;;;8.17;74.13
33486;BME280;19824;52.098;5.004;2023-03-04T06:20:59;102661.59;;;8.15;74.54
33486;BME280;19824;52.098;5.004;2023-03-04T06:23:30;102661.59;;;8.15;74.45
33486;BME280;19824;52.098;5.004;2023-03-04T06:26:08;102659.75;;;8.17;75.02
33486;BME280;19824;52.098;5.004;2023-03-04T06:28:48;102670.38;;;8.17;75.02
33486;BME280;19824;52.098;5.004;2023-03-04T06:31:18;102667.63;;;8.19;74.89
33486;BME280;19824;52.098;5.004;2023-03-04T06:33:57;102676.53;;;8.18;75.40
33486;BME280;19824;52.098;5.004;2023-03-04T06:36:28;102672.16;;;8.17;75.62
33486;BME280;19824;52.098;5.004;2023-03-04T06:39:06;102673.94;;;8.16;75.40
33486;BME280;19824;52.098;5.004;2023-03-04T06:41:44;102678.41;;;8.16;74.99
33486;BME280;19824;52.098;5.004;2023-03-04T06:44:14;102674.84;;;8.15;75.58
33486;BME280;19824;52.098;5.004;2023-03-04T06:46:51;102670.38;;;8.17;75.26
33486;BME280;19824;52.098;5.004;2023-03-04T06:49:24;102677.38;;;8.18;75.78
33486;BME280;19824;52.098;5.004;2023-03-04T06:52:01;102676.34;;;8.21;75.26
33486;BME280;19824;52.098;5.004;2023-03-04T06:54:32;102676.28;;;8.22;75.87
33486;BME280;19824;52.098;5.004;2023-03-04T06:57:09;102681.59;;;8.22;76.00
33486;BME280;19824;52.098;5.004;2023-03-04T06:59:39;102679.63;;;8.26;76.06
33486;BME280;19824;52.098;5.004;2023-03-04T07:02:16;102681.44;;;8.25;76.21
33486;BME280;19824;52.098;5.004;2023-03-04T07:04:55;102690.91;;;8.29;76.45
33486;BME280;19824;52.098;5.004;2023-03-04T07:07:26;102688.09;;;8.32;76.52
33486;BME280;19824;52.098;5.004;2023-03-04T07:10:04;102693.50;;;8.31;76.16
33486;BME280;19824;52.098;5.004;2023-03-04T07:12:36;102692.88;;;8.26;76.76
33486;BME280;19824;52.098;5.004;2023-03-04T07:15:13;102691.94;;;8.27;77.22
33486;BME280;19824;52.098;5.004;2023-03-04T07:17:50;102697.16;;;8.28;77.12
33486;BME280;19824;52.098;5.004;2023-03-04T07:20:23;102703.09;;;8.33;77.25
33486;BME280;19824;52.098;5.004;2023-03-04T07:23:00;102698.06;;;8.60;76.88
33486;BME280;19824;52.098;5.004;2023-03-04T07:25:30;102693.28;;;9.11;77.11
33486;BME280;19824;52.098;5.004;2023-03-04T07:28:07;102690.88;;;9.22;77.11
33486;BME280;19824;52.098;5.004;2023-03-04T07:30:44;102694.47;;;9.21;77.37
33486;BME280;19824;52.098;5.004;2023-03-04T07:33:15;102697.81;;;9.24;77.04
33486;BME280;19824;52.098;5.004;2023-03-04T07:36:00;102700.47;;;9.24;76.97
33486;BME280;19824;52.098;5.004;2023-03-04T07:38:37;102696.00;;;9.25;77.21
33486;BME280;19824;52.098;5.004;2023-03-04T07:41:07;102697.16;;;9.35;77.14
33486;BME280;19824;52.098;5.004;2023-03-04T07:43:47;102695.25;;;9.52;76.92
33486;BME280;19824;52.098;5.004;2023-03-04T07:46:24;102691.19;;;9.61;77.05
33486;BME280;19824;52.098;5.004;2023-03-04T07:48:55;102697.28;;;9.63;76.58
33486;BME280;19824;52.098;5.004;2023-03-04T07:51:34;102702.19;;;9.68;76.40
33486;BME280;19824;52.098;5.004;2023-03-04T07:54:11;102698.06;;;9.78;75.75
33486;BME280;19824;52.098;5.004;2023-03-04T07:56:42;102705.38;;;9.89;76.29
33486;BME280;19824;52.098;5.004;2023-03-04T07:59:19;102705.88;;;9.95;76.09
33486;BME280;19824;52.098;5.004;2023-03-04T08:01:50;102710.00;;;10.01;75.34
33486;BME280;19824;52.098;5.004;2023-03-04T08:04:27;102712.47;;;10.18;75.39
33486;BME280;19824;52.098;5.004;2023-03-04T08:07:00;102711.03;;;10.40;75.10
33486;BME280;19824;52.098;5.004;2023-03-04T08:09:37;102711.41;;;10.48;74.81
33486;BME280;19824;52.098;5.004;2023-03-04T08:12:14;102711.41;;;10.48;74.61
33486;BME280;19824;52.098;5.004;2023-03-04T08:14:45;102711.97;;;10.53;74.42
33486;BME280;19824;52.098;5.004;2023-03-04T08:17:22;102717.28;;;10.53;74.15
33486;BME280;19824;52.098;5.004;2023-03-04T08:19:52;102717.78;;;10.46;73.80
33486;BME280;19824;52.098;5.004;2023-03-04T08:22:31;102717.88;;;10.44;72.72
33486;BME280;19824;52.098;5.004;2023-03-04T08:25:09;102720.53;;;10.44;73.48
33486;BME280;19824;52.098;5.004;2023-03-04T08:27:39;102726.25;;;10.52;73.52
33486;BME280;19824;52.098;5.004;2023-03-04T08:30:16;102713.25;;;10.74;73.07
33486;BME280;19824;52.098;5.004;2023-03-04T08:32:53;102720.47;;;11.12;72.82
33486;BME280;19824;52.098;5.004;2023-03-04T08:35:23;102715.28;;;11.50;72.01
33486;BME280;19824;52.098;5.004;2023-03-04T08:38:03;102714.59;;;11.72;71.23
33486;BME280;19824;52.098;5.004;2023-03-04T08:40:34;102713.41;;;11.76;71.40
33486;BME280;19824;52.098;5.004;2023-03-04T08:43:11;102711.59;;;12.14;71.87
33486;BME280;19824;52.098;5.004;2023-03-04T08:45:41;102713.78;;;12.70;71.45
33486;BME280;19824;52.098;5.004;2023-03-04T08:48:18;102705.66;;;13.07;70.63
33486;BME280;19824;52.098;5.004;2023-03-04T08:50:55;102706.22;;;13.23;69.13
33486;BME280;19824;52.098;5.004;2023-03-04T08:53:28;102710.06;;;13.19;68.48
33486;BME280;19824;52.098;5.004;2023-03-04T08:56:06;102711.00;;;13.07;68.62
33486;BME280;19824;52.098;5.004;2023-03-04T08:58:37;102711.00;;;12.59;68.61
33486;BME280;19824;52.098;5.004;2023-03-04T09:01:15;102709.06;;;12.61;69.27
33486;BME280;19824;52.098;5.004;2023-03-04T09:03:52;102708.47;;;12.45;69.55
33486;BME280;19824;52.098;5.004;2023-03-04T09:06:22;102710.31;;;12.32;68.99
33486;BME280;19824;52.098;5.004;2023-03-04T09:09:01;102708.63;;;12.19;69.10
33486;BME280;19824;52.098;5.004;2023-03-04T09:11:38;102708.09;;;12.01;69.61
33486;BME280;19824;52.098;5.004;2023-03-04T09:14:08;102704.88;;;11.96;70.09
33486;BME280;19824;52.098;5.004;2023-03-04T09:16:45;102712.03;;;11.96;71.27
33486;BME280;19824;52.098;5.004;2023-03-04T09:19:22;102712.88;;;11.96;71.81
33486;BME280;19824;52.098;5.004;2023-03-04T09:21:53;102713.22;;;11.79;72.31
33486;BME280;19824;52.098;5.004;2023-03-04T09:24:37;102703.59;;;11.65;72.84
33486;BME280;19824;52.098;5.004;2023-03-04T09:27:14;102706.53;;;11.60;73.16
33486;BME280;19824;52.098;5.004;2023-03-04T09:29:44;102705.44;;;11.50;74.05
33486;BME280;19824;52.098;5.004;2023-03-04T09:32:21;102705.44;;;11.50;74.41
33486;BME280;19824;52.098;5.004;2023-03-04T09:34:58;102713.16;;;11.55;74.52
33486;BME280;19824;52.098;5.004;2023-03-04T09:37:28;102706.38;;;11.75;75.37
33486;BME280;19824;52.098;5.004;2023-03-04T09:40:16;102695.91;;;12.22;76.04
33486;BME280;19824;52.098;5.004;2023-03-04T09:42:50;102699.28;;;12.85;75.39
33486;BME280;19824;52.098;5.004;2023-03-04T09:45:36;102691.91;;;13.12;75.15
33486;BME280;19824;52.098;5.004;2023-03-04T09:48:17;102694.16;;;13.18;74.54
33486;BME280;19824;52.098;5.004;2023-03-04T09:51:04;102686.31;;;13.04;73.82
33486;BME280;19824;52.098;5.004;2023-03-04T09:53:54;102695.34;;;12.90;74.23
33486;BME280;19824;52.098;5.004;2023-03-04T09:56:32;102690.47;;;12.72;74.30
33486;BME280;19824;52.098;5.004;2023-03-04T09:59:16;102686.88;;;12.48;74.41
33486;BME280;19824;52.098;5.004;2023-03-04T10:01:54;102690.72;;;12.44;74.99
33486;BME280;19824;52.098;5.004;2023-03-04T10:04:36;102680.34;;;12.52;74.52
33486;BME280;19824;52.098;5.004;2023-03-04T10:07:16;102684.53;;;12.56;74.50
33486;BME280;19824;52.098;5.004;2023-03-04T10:09:58;102683.44;;;12.46;74.69
33486;BME280;19824;52.098;5.004;2023-03-04T10:12:34;102681.53;;;12.36;73.67
33486;BME280;19824;52.098;5.004;2023-03-04T10:15:25;102676.75;;;12.28;74.36
33486;BME280;19824;52.098;5.004;2023-03-04T10:18:10;102680.38;;;12.27;73.99
33486;BME280;19824;52.098;5.004;2023-03-04T10:20:52;102673.66;;;12.34;74.26
33486;BME280;19824;52.098;5.004;2023-03-04T10:23:32;102675.91;;;12.40;74.06
33486;BME280;19824;52.098;5.004;2023-03-04T10:26:12;102669.31;;;12.57;74.02
33486;BME280;19824;52.098;5.004;2023-03-04T10:28:52;102673.28;;;12.87;73.60
33486;BME280;19824;52.098;5.004;2023-03-04T10:31:31;102678.31;;;13.15;73.52
33486;BME280;19824;52.098;5.004;2023-03-04T10:34:10;102673.09;;;13.48;72.81
33486;BME280;19824;52.098;5.004;2023-03-04T10:36:54;102672.66;;;13.65;72.02
33486;BME280;19824;52.098;5.004;2023-03-04T10:39:35;102666.59;;;13.84;71.75
33486;BME280;19824;52.098;5.004;2023-03-04T10:42:22;102666.88;;;13.81;69.37
33486;BME280;19824;52.098;5.004;2023-03-04T10:45:03;102668.03;;;13.66;69.48
33486;BME280;19824;52.098;5.004;2023-03-04T10:47:40;102661.88;;;13.43;69.83
33486;BME280;19824;52.098;5.004;2023-03-04T10:50:27;102664.25;;;13.24;69.06
33486;BME280;19824;52.098;5.004;2023-03-04T10:53:04;102665.78;;;12.92;68.54
33486;BME280;19824;52.098;5.004;2023-03-04T10:55:43;102674.88;;;12.54;69.43
33486;BME280;19824;52.098;5.004;2023-03-04T10:58:20;102670.38;;;12.18;70.26
33486;BME280;19824;52.098;5.004;2023-03-04T11:01:05;102665.34;;;12.01;70.64
33486;BME280;19824;52.098;5.004;2023-03-04T11:03:48;102660.97;;;12.00;71.89
33486;BME280;19824;52.098;5.004;2023-03-04T11:06:25;102661.09;;;12.11;72.15
33486;BME280;19824;52.098;5.004;2023-03-04T11:08:59;102657.84;;;12.31;71.97
33486;BME280;19824;52.098;5.004;2023-03-04T11:11:41;102653.22;;;12.46;72.40
33486;BME280;19824;52.098;5.004;2023-03-04T11:14:20;102659.19;;;12.85;71.94
33486;BME280;19824;52.098;5.004;2023-03-04T11:17:07;102648.25;;;13.35;71.61
33486;BME280;19824;52.098;5.004;2023-03-04T11:19:49;102640.41;;;13.66;70.62
33486;BME280;19824;52.098;5.004;2023-03-04T11:22:28;102632.28;;;13.78;70.56
33486;BME280;19824;52.098;5.004;2023-03-04T11:25:01;102633.19;;;13.45;69.42
33486;BME280;19824;52.098;5.004;2023-03-04T11:27:46;102631.56;;;13.31;69.97
33486;BME280;19824;52.098;5.004;2023-03-04T11:30:37;102636.19;;;13.06;69.72
33486;BME280;19824;52.098;5.004;2023-03-04T11:33:25;102635.38;;;13.05;69.88
33486;BME280;19824;52.098;5.004;2023-03-04T11:36:26;102629.66;;;12.86;69.39
33486;BME280;19824;52.098;5.004;2023-03-04T11:38:59;102634.06;;;12.75;70.37
33486;BME280;19824;52.098;5.004;2023-03-04T11:41:40;102638.44;;;12.53;70.38
33486;BME280;19824;52.098;5.004;2023-03-04T11:44:13;102627.69;;;12.42;70.00
33486;BME280;19824;52.098;5.004;2023-03-04T11:47:20;102636.59;;;12.30;70.77
33486;BME280;19824;52.098;5.004;2023-03-04T11:50:28;102632.56;;;12.12;71.59
33486;BME280;19824;52.098;5.004;2023-03-04T11:53:17;102630.56;;;12.03;72.36
33486;BME280;19824;52.098;5.004;2023-03-04T11:56:17;102624.97;;;12.06;72.11
33486;BME280;19824;52.098;5.004;2023-03-04T11:59:16;102622.31;;;12.06;73.49
33486;BME280;19824;52.098;5.004;2023-03-04T12:02:15;102621.34;;;12.19;72.72
33486;BME280;19824;52.098;5.004;2023-03-04T12:05:19;102613.38;;;12.30;73.06
33486;BME280;19824;52.098;5.004;2023-03-04T12:08:42;102613.16;;;12.33;73.73
33486;BME280;19824;52.098;5.004;2023-03-04T12:11:23;102617.31;;;12.50;72.69
33486;BME280;19824;52.098;5.004;2023-03-04T12:14:23;102618.72;;;12.30;73.11
33486;BME280;19824;52.098;5.004;2023-03-04T12:17:20;102612.28;;;12.09;73.00
33486;BME280;19824;52.098;5.004;2023-03-04T12:20:31;102617.00;;;11.68;74.72
33486;BME280;19824;52.098;5.004;2023-03-04T12:23:37;102622.66;;;11.64;73.83
33486;BME280;19824;52.098;5.004;2023-03-04T12:26:23;102620.31;;;11.60;74.72
33486;BME280;19824;52.098;5.004;2023-03-04T12:29:06;102612.63;;;11.68;74.61
33486;BME280;19824;52.098;5.004;2023-03-04T12:31:41;102612.88;;;11.65;75.51
33486;BME280;19824;52.098;5.004;2023-03-04T12:38:05;102614.50;;;11.41;75.28
33486;BME280;19824;52.098;5.004;2023-03-04T12:40:51;102607.47;;;11.40;74.76
33486;BME280;19824;52.098;5.004;2023-03-04T12:43:42;102606.69;;;11.13;73.56
33486;BME280;19824;52.098;5.004;2023-03-04T12:46:39;102601.00;;;11.05;73.43
33486;BME280;19824;52.098;5.004;2023-03-04T12:49:26;102597.59;;;11.03;73.67
33486;BME280;19824;52.098;5.004;2023-03-04T12:52:17;102593.75;;;11.07;73.25
33486;BME280;19824;52.098;5.004;2023-03-04T12:54:57;102586.31;;;11.12;73.00
33486;BME280;19824;52.098;5.004;2023-03-04T12:57:37;102584.50;;;11.25;72.09
33486;BME280;19824;52.098;5.004;2023-03-04T13:00:23;102584.09;;;11.31;71.58
33486;BME280;19824;52.098;5.004;2023-03-04T13:03:07;102573.34;;;11.45;71.88
33486;BME280;19824;52.098;5.004;2023-03-04T13:06:09;102568.66;;;11.61;70.46
33486;BME280;19824;52.098;5.004;2023-03-04T13:08:55;102567.47;;;11.77;70.61
33486;BME280;19824;52.098;5.004;2023-03-04T13:11:54;102560.97;;;11.81;69.25
33486;BME280;19824;52.098;5.004;2023-03-04T13:14:37;102569.03;;;12.04;69.39
33486;BME280;19824;52.098;5.004;2023-03-04T13:17:39;102560.28;;;12.02;66.59
33486;BME280;19824;52.098;5.004;2023-03-04T13:20:24;102559.09;;;12.06;66.35
33486;BME280;19824;52.098;5.004;2023-03-04T13:23:01;102550.22;;;12.06;66.54
33486;BME280;19824;52.098;5.004;2023-03-04T13:25:40;102550.88;;;12.09;66.56
33486;BME280;19824;52.098;5.004;2023-03-04T13:28:21;102558.06;;;11.84;65.55
33486;BME280;19824;52.098;5.004;2023-03-04T13:31:13;102556.47;;;11.81;66.87
33486;BME280;19824;52.098;5.004;2023-03-04T13:33:54;102551.56;;;11.75;67.41
33486;BME280;19824;52.098;5.004;2023-03-04T13:36:56;102552.88;;;11.58;67.43
33486;BME280;19824;52.098;5.004;2023-03-04T13:39:34;102554.56;;;11.59;67.39
33486;BME280;19824;52.098;5.004;2023-03-04T13:42:40;102549.00;;;11.49;68.71
33486;BME280;19824;52.098;5.004;2023-03-04T13:45:37;102550.75;;;11.63;68.13
33486;BME280;19824;52.098;5.004;2023-03-04T13:48:30;102546.38;;;11.62;66.28
33486;BME280;19824;52.098;5.004;2023-03-04T13:51:14;102547.13;;;11.64;65.73
33486;BME280;19824;52.098;5.004;2023-03-04T13:54:05;102544.94;;;11.68;64.97
33486;BME280;19824;52.098;5.004;2023-03-04T13:56:44;102543.56;;;11.75;65.24
33486;BME280;19824;52.098;5.004;2023-03-04T13:59:31;102534.81;;;11.73;63.96
